createdAt,value
2022-11-23T00:00:45.272Z,1.10
2022-11-23T00:03:14.339Z,1.67
2022-11-23T00:05:42.337Z,2.10
2022-11-23T00:08:11.635Z,2.97
2022-11-23T00:10:39.614Z,2.40
2022-11-23T00:13:07.579Z,1.70
2022-11-23T00:15:35.648Z,1.63
2022-11-23T00:18:03.810Z,1.63
2022-11-23T00:20:31.805Z,3.87
2022-11-23T00:22:59.818Z,1.23
2022-11-23T00:25:29.644Z,7.80
2022-11-23T00:27:57.727Z,3.17
2022-11-23T00:30:25.685Z,4.47
2022-11-23T00:32:53.714Z,2.30
2022-11-23T00:35:21.776Z,2.80
2022-11-23T00:37:49.720Z,1.43
2022-11-23T00:40:17.788Z,1.97
2022-11-23T00:42:47.207Z,5.03
2022-11-23T00:45:15.318Z,2.00
2022-11-23T00:47:43.297Z,15.07
2022-11-23T00:50:11.463Z,1.83
2022-11-23T00:52:39.725Z,1.73
2022-11-23T00:55:08.478Z,2.33
2022-11-23T00:57:36.450Z,3.07
2022-11-23T01:00:06.913Z,1.10
2022-11-23T01:02:36.218Z,1.17
2022-11-23T01:05:04.269Z,3.37
2022-11-23T01:07:32.336Z,3.97
2022-11-23T01:10:00.361Z,4.57
2022-11-23T01:12:29.940Z,2.80
2022-11-23T01:14:58.035Z,7.77
2022-11-23T01:17:27.412Z,9.27
2022-11-23T01:19:55.349Z,11.73
2022-11-23T01:22:23.323Z,6.07
2022-11-23T01:24:51.858Z,5.63
2022-11-23T01:27:19.850Z,3.90
2022-11-23T01:29:47.914Z,3.10
2022-11-23T01:32:15.890Z,3.50
2022-11-23T01:34:45.264Z,1.77
2022-11-23T01:37:13.280Z,3.73
2022-11-23T01:39:41.214Z,5.83
2022-11-23T01:42:10.961Z,2.57
2022-11-23T01:44:42.892Z,4.70
2022-11-23T01:47:10.917Z,4.40
2022-11-23T01:49:40.943Z,4.60
2022-11-23T01:52:11.370Z,4.77
2022-11-23T01:54:41.037Z,9.30
2022-11-23T01:57:11.241Z,2.70
2022-11-23T01:59:39.206Z,5.43
2022-11-23T02:02:07.164Z,3.17
2022-11-23T02:04:38.748Z,6.67
2022-11-23T02:07:06.762Z,3.53
2022-11-23T02:09:36.138Z,26.20
2022-11-23T02:12:04.263Z,8.90
2022-11-23T02:14:32.180Z,5.57
2022-11-23T02:17:00.152Z,4.17
2022-11-23T02:19:32.386Z,2.53
2022-11-23T02:22:00.648Z,2.03
2022-11-23T02:24:31.783Z,11.53
2022-11-23T02:27:02.029Z,3.40
2022-11-23T02:29:30.303Z,7.30
2022-11-23T02:31:58.482Z,12.23
2022-11-23T02:34:26.447Z,2.90
2022-11-23T02:36:54.657Z,6.60
2022-11-23T02:39:35.873Z,4.93
2022-11-23T02:42:05.395Z,7.00
2022-11-23T02:44:37.380Z,4.07
2022-11-23T02:47:05.583Z,2.70
2022-11-23T02:49:33.851Z,5.30
2022-11-23T02:52:01.957Z,10.83
2022-11-23T02:54:29.900Z,1.97
2022-11-23T02:56:57.902Z,2.63
2022-11-23T02:59:27.242Z,1.70
2022-11-23T03:01:55.263Z,5.60
2022-11-23T03:04:27.602Z,3.10
2022-11-23T03:06:56.134Z,2.67
2022-11-23T03:09:26.168Z,2.87
2022-11-23T03:11:54.320Z,4.00
2022-11-23T03:14:22.319Z,3.33
2022-11-23T03:16:51.658Z,3.40
2022-11-23T03:19:19.602Z,4.03
2022-11-23T03:21:47.643Z,2.40
2022-11-23T03:24:16.317Z,1.87
2022-11-23T03:26:44.555Z,1.70
2022-11-23T03:29:12.522Z,2.10
2022-11-23T03:31:40.437Z,1.93
2022-11-23T03:34:10.261Z,4.50
2022-11-23T03:36:38.261Z,2.60
2022-11-23T03:39:06.294Z,2.27
2022-11-23T03:41:34.285Z,2.70
2022-11-23T03:44:02.506Z,5.00
2022-11-23T03:46:30.465Z,5.70
2022-11-23T03:48:58.568Z,3.37
2022-11-23T03:51:27.894Z,2.30
2022-11-23T03:53:55.881Z,1.23
2022-11-23T03:56:24.610Z,1.37
2022-11-23T03:58:52.544Z,1.63
2022-11-23T04:01:20.533Z,1.93
2022-11-23T04:03:48.503Z,1.90
2022-11-23T04:06:16.466Z,1.77
2022-11-23T04:08:45.958Z,3.23
2022-11-23T04:11:13.951Z,1.50
2022-11-23T04:13:41.916Z,10.80
2022-11-23T04:16:09.919Z,1.83
2022-11-23T04:18:37.955Z,1.80
2022-11-23T04:21:06.138Z,6.17
2022-11-23T04:23:34.102Z,2.37
2022-11-23T04:26:03.402Z,6.20
2022-11-23T04:28:31.339Z,2.63
2022-11-23T04:30:59.531Z,2.13
2022-11-23T04:33:27.575Z,3.07
2022-11-23T04:35:55.514Z,2.67
2022-11-23T04:38:23.474Z,3.73
2022-11-23T04:40:51.395Z,3.73
2022-11-23T04:43:20.789Z,3.50
2022-11-23T04:45:48.791Z,3.30
2022-11-23T04:48:16.740Z,7.13
2022-11-23T04:50:46.763Z,3.60
2022-11-23T04:53:14.992Z,2.33
2022-11-23T04:55:43.011Z,4.07
2022-11-23T04:58:10.956Z,6.50
2022-11-23T05:00:40.478Z,4.47
2022-11-23T05:03:08.555Z,3.43
2022-11-23T05:05:38.814Z,3.23
2022-11-23T05:08:06.923Z,6.37
2022-11-23T05:10:34.918Z,3.30
2022-11-23T05:13:02.942Z,7.73
2022-11-23T05:15:31.009Z,9.97
2022-11-23T05:18:03.890Z,2.87
2022-11-23T05:20:31.862Z,2.93
2022-11-23T05:22:59.826Z,3.53
2022-11-23T05:25:27.781Z,3.93
2022-11-23T05:27:55.771Z,4.10
2022-11-23T05:30:23.735Z,3.20
2022-11-23T05:32:51.679Z,8.53
2022-11-23T05:35:21.074Z,3.67
2022-11-23T05:37:49.052Z,6.63
2022-11-23T05:40:17.041Z,5.70
2022-11-23T05:42:45.011Z,7.13
2022-11-23T05:45:13.024Z,6.07
2022-11-23T05:47:40.963Z,3.50
2022-11-23T05:50:10.146Z,5.80
2022-11-23T05:52:39.497Z,6.80
2022-11-23T05:55:07.781Z,3.13
2022-11-23T05:57:35.754Z,5.40
2022-11-23T06:00:04.222Z,6.07
2022-11-23T06:02:34.600Z,3.10
2022-11-23T06:05:06.675Z,16.63
2022-11-23T06:07:34.742Z,8.20
2022-11-23T06:10:04.313Z,8.03
2022-11-23T06:12:32.324Z,5.30
2022-11-23T06:15:00.388Z,2.50
2022-11-23T06:17:28.394Z,5.87
2022-11-23T06:19:56.397Z,2.20
2022-11-23T06:22:24.324Z,2.10
2022-11-23T06:24:52.323Z,5.13
2022-11-23T06:27:21.649Z,4.00
2022-11-23T06:29:49.622Z,5.90
2022-11-23T06:32:17.620Z,6.00
2022-11-23T06:34:45.603Z,8.40
2022-11-23T06:37:13.955Z,6.57
2022-11-23T06:39:42.012Z,7.70
2022-11-23T06:42:37.931Z,4.83
2022-11-23T06:44:59.391Z,13.80
2022-11-23T06:47:27.397Z,62.73
2022-11-23T06:49:55.373Z,26.37
2022-11-23T06:52:23.358Z,17.67
2022-11-23T06:54:51.257Z,14.77
2022-11-23T06:57:19.204Z,17.93
2022-11-23T06:59:47.188Z,8.30
2022-11-23T07:02:16.517Z,10.30
2022-11-23T07:04:44.507Z,7.67
2022-11-23T07:07:12.608Z,7.43
2022-11-23T07:09:40.635Z,15.43
2022-11-23T07:12:09.084Z,7.50
2022-11-23T07:14:37.065Z,7.97
2022-11-23T07:17:05.051Z,7.80
2022-11-23T07:19:34.650Z,6.80
2022-11-23T07:22:02.766Z,8.77
2022-11-23T07:24:34.849Z,7.50
2022-11-23T07:27:06.790Z,5.03
2022-11-23T07:29:34.975Z,9.00
2022-11-23T07:32:03.102Z,5.67
2022-11-23T07:34:31.186Z,7.50
2022-11-23T07:37:02.156Z,12.63
2022-11-23T07:39:49.229Z,5.40
2022-11-23T07:42:32.359Z,5.77
2022-11-23T07:45:02.956Z,5.53
2022-11-23T07:47:30.883Z,7.03
2022-11-23T07:49:58.906Z,3.47
2022-11-23T07:52:28.213Z,3.53
2022-11-23T07:54:56.128Z,5.20
2022-11-23T07:57:24.386Z,6.93
2022-11-23T07:59:52.308Z,5.13
2022-11-23T08:02:20.307Z,6.20
2022-11-23T08:04:48.305Z,11.27
2022-11-23T08:07:16.333Z,3.43
2022-11-23T08:09:45.792Z,4.30
2022-11-23T08:12:13.892Z,3.57
2022-11-23T08:14:41.924Z,4.30
2022-11-23T08:17:10.025Z,8.90
2022-11-23T08:19:37.937Z,4.30
2022-11-23T08:22:05.881Z,4.80
2022-11-23T08:24:34.266Z,11.87
2022-11-23T08:27:04.017Z,3.67
2022-11-23T08:29:31.998Z,4.20
2022-11-23T08:32:00.019Z,6.87
2022-11-23T08:34:28.098Z,3.90
2022-11-23T08:36:56.018Z,9.37
2022-11-23T08:39:23.997Z,4.80
2022-11-23T08:41:52.085Z,4.93
2022-11-23T08:44:21.385Z,2.90
2022-11-23T08:46:49.399Z,2.80
2022-11-23T08:49:17.361Z,2.83
2022-11-23T08:51:49.881Z,10.23
2022-11-23T08:54:18.313Z,4.70
2022-11-23T08:56:46.275Z,5.40
2022-11-23T08:59:14.205Z,6.00
2022-11-23T09:01:43.584Z,4.00
2022-11-23T09:04:14.057Z,6.90
2022-11-23T09:06:45.765Z,4.33
2022-11-23T09:09:13.720Z,12.93
2022-11-23T09:11:41.665Z,6.90
2022-11-23T09:14:09.746Z,4.10
2022-11-23T09:16:37.752Z,4.50
2022-11-23T09:19:07.333Z,4.13
2022-11-23T09:21:36.239Z,4.93
2022-11-23T09:24:04.273Z,4.77
2022-11-23T09:26:33.937Z,4.80
2022-11-23T09:29:01.837Z,7.93
2022-11-23T09:31:29.821Z,3.17
2022-11-23T09:33:57.779Z,4.47
2022-11-23T09:36:27.255Z,4.77
2022-11-23T09:38:56.978Z,4.10
2022-11-23T09:41:37.842Z,5.63
2022-11-23T09:44:08.020Z,3.60
2022-11-23T09:46:41.560Z,5.90
2022-11-23T09:49:12.454Z,3.97
2022-11-23T09:51:41.825Z,5.97
2022-11-23T09:54:15.398Z,4.67
2022-11-23T09:56:43.319Z,7.37
2022-11-23T09:59:14.055Z,4.03
2022-11-23T10:01:42.138Z,9.80
2022-11-23T10:04:11.183Z,14.37
2022-11-23T10:06:39.381Z,4.10
2022-11-23T10:09:22.619Z,16.90
2022-11-23T10:12:13.116Z,11.30
2022-11-23T10:14:48.767Z,11.90
2022-11-23T10:17:19.291Z,6.87
2022-11-23T10:19:54.280Z,4.23
2022-11-23T10:22:23.572Z,8.07
2022-11-23T10:24:53.506Z,4.67
2022-11-23T10:27:22.275Z,8.63
2022-11-23T10:29:52.465Z,5.83
2022-11-23T10:32:27.994Z,13.10
2022-11-23T10:35:00.808Z,13.93
2022-11-23T10:37:28.788Z,14.67
2022-11-23T10:39:58.303Z,10.80
2022-11-23T10:42:31.701Z,10.57
2022-11-23T10:45:00.505Z,7.67
2022-11-23T10:47:39.119Z,8.17
2022-11-23T10:50:22.893Z,9.83
2022-11-23T10:52:55.485Z,7.93
2022-11-23T10:55:28.062Z,7.20
2022-11-23T10:57:56.226Z,4.80
2022-11-23T11:00:30.242Z,5.50
2022-11-23T11:02:59.294Z,6.87
2022-11-23T11:06:07.073Z,16.83
2022-11-23T11:08:20.948Z,6.97
2022-11-23T11:10:51.064Z,12.40
2022-11-23T11:13:27.108Z,6.90
2022-11-23T11:15:56.369Z,7.00
2022-11-23T11:18:26.744Z,6.50
2022-11-23T11:20:58.487Z,9.23
2022-11-23T11:23:26.540Z,13.60
2022-11-23T11:26:06.025Z,9.30
2022-11-23T11:28:36.810Z,8.40
2022-11-23T11:31:23.779Z,20.47
2022-11-23T11:33:54.852Z,15.30
2022-11-23T11:36:22.920Z,9.83
2022-11-23T11:39:14.848Z,19.63
2022-11-23T11:41:41.450Z,6.50
2022-11-23T11:44:10.788Z,7.30
2022-11-23T11:46:39.740Z,8.80
2022-11-23T11:49:08.863Z,10.37
2022-11-23T11:51:39.344Z,12.90
2022-11-23T11:54:11.677Z,8.13
2022-11-23T11:56:42.784Z,12.63
2022-11-23T11:59:15.187Z,14.43
2022-11-23T12:01:46.070Z,6.73
2022-11-23T12:04:16.980Z,9.20
2022-11-23T12:06:47.761Z,7.43
2022-11-23T12:09:17.678Z,7.87
2022-11-23T12:11:47.096Z,8.93
2022-11-23T12:14:15.565Z,9.80
2022-11-23T12:16:59.302Z,9.57
2022-11-23T12:19:36.230Z,13.57
2022-11-23T12:22:11.969Z,11.03
2022-11-23T12:24:54.376Z,7.97
2022-11-23T12:27:28.257Z,8.93
2022-11-23T12:30:07.695Z,9.50
2022-11-23T12:32:38.828Z,22.17
2022-11-23T12:35:22.556Z,12.90
2022-11-23T12:37:57.310Z,11.60
2022-11-23T12:40:35.962Z,18.67
2022-11-23T12:43:07.607Z,25.03
2022-11-23T12:45:51.416Z,11.10
2022-11-23T12:48:24.795Z,17.30
2022-11-23T12:50:56.355Z,10.50
2022-11-23T12:53:33.094Z,7.87
2022-11-23T12:56:04.958Z,10.83
2022-11-23T12:58:34.799Z,10.73
2022-11-23T13:01:04.805Z,12.80
2022-11-23T13:03:55.491Z,10.57
2022-11-23T13:10:24.690Z,13.90
2022-11-23T13:13:07.809Z,9.93
2022-11-23T13:15:52.984Z,6.37
2022-11-23T13:18:42.998Z,7.60
2022-11-23T13:21:18.047Z,12.23
2022-11-23T13:23:45.991Z,8.90
2022-11-23T13:26:18.079Z,11.60
2022-11-23T13:28:46.655Z,18.47
2022-11-23T13:31:24.868Z,11.03
2022-11-23T13:33:55.084Z,13.90
2022-11-23T13:40:03.943Z,17.23
2022-11-23T13:42:33.177Z,10.10
2022-11-23T13:45:16.237Z,10.73
2022-11-23T13:48:00.153Z,16.87
2022-11-23T13:50:28.156Z,10.00
2022-11-23T13:52:56.206Z,17.57
2022-11-23T13:55:28.403Z,15.70
2022-11-23T13:58:33.373Z,15.40
2022-11-23T14:01:01.807Z,41.77
2022-11-23T14:03:50.987Z,16.57
2022-11-23T14:06:42.415Z,16.93
2022-11-23T14:09:14.891Z,41.43
2022-11-23T14:11:50.372Z,14.33
2022-11-23T14:14:20.169Z,22.40
2022-11-23T14:17:07.758Z,34.57
2022-11-23T14:19:43.073Z,45.57
2022-11-23T14:22:14.532Z,34.10
2022-11-23T14:25:01.367Z,22.90
2022-11-23T14:27:50.908Z,23.80
2022-11-23T14:30:40.629Z,27.40
2022-11-23T14:33:17.494Z,15.27
2022-11-23T14:35:49.484Z,15.10
2022-11-23T14:38:54.292Z,14.53
2022-11-23T14:41:23.232Z,21.20
2022-11-23T14:43:51.195Z,37.30
2022-11-23T14:46:20.155Z,32.33
2022-11-23T14:48:51.316Z,38.13
2022-11-23T14:51:21.896Z,35.73
2022-11-23T14:53:53.206Z,47.57
2022-11-23T14:56:31.809Z,30.70
2022-11-23T14:59:02.283Z,48.90
2022-11-23T15:01:30.292Z,35.37
2022-11-23T15:03:58.902Z,38.50
2022-11-23T15:06:29.631Z,31.47
2022-11-23T15:09:02.863Z,33.93
2022-11-23T15:11:30.888Z,28.87
2022-11-23T15:14:03.350Z,35.20
2022-11-23T15:16:31.412Z,32.13
2022-11-23T15:18:59.387Z,26.87
2022-11-23T15:21:28.805Z,36.50
2022-11-23T15:23:58.027Z,30.80
2022-11-23T15:26:48.539Z,28.13
2022-11-23T15:29:30.329Z,41.13
2022-11-23T15:34:46.645Z,49.27
2022-11-23T15:37:16.018Z,38.30
2022-11-23T15:39:44.220Z,40.50
2022-11-23T15:42:12.567Z,48.30
2022-11-23T15:44:40.580Z,32.30
2022-11-23T15:47:09.086Z,34.13
2022-11-23T15:49:38.287Z,35.77
2022-11-23T15:52:06.297Z,37.77
2022-11-23T15:54:37.185Z,45.43
2022-11-23T15:57:07.622Z,42.60
2022-11-23T15:59:38.874Z,56.50
2022-11-23T16:02:07.524Z,55.80
2022-11-23T16:04:37.687Z,44.03
2022-11-23T16:07:16.221Z,48.80
2022-11-23T16:09:52.703Z,39.27
2022-11-23T16:12:28.968Z,46.03
2022-11-23T16:14:57.657Z,59.53
2022-11-23T16:17:26.112Z,43.47
2022-11-23T16:19:54.539Z,38.70
2022-11-23T16:22:28.201Z,27.93
2022-11-23T16:25:01.596Z,28.90
2022-11-23T16:27:29.527Z,26.53
2022-11-23T16:30:02.637Z,22.50
2022-11-23T16:32:31.962Z,28.60
2022-11-23T16:35:07.755Z,30.53
2022-11-23T16:37:36.082Z,37.73
2022-11-23T16:40:06.314Z,34.20
2022-11-23T16:42:34.262Z,26.10
2022-11-23T16:45:04.750Z,31.77
2022-11-23T16:47:32.700Z,30.33
2022-11-23T16:50:00.685Z,33.30
2022-11-23T16:52:28.620Z,31.33
2022-11-23T16:54:56.646Z,39.37
2022-11-23T16:57:29.291Z,37.80
2022-11-23T16:59:57.387Z,32.37
2022-11-23T17:02:25.369Z,49.70
2022-11-23T17:04:53.444Z,30.20
2022-11-23T17:07:21.531Z,30.17
2022-11-23T17:09:49.522Z,38.00
2022-11-23T17:12:19.495Z,40.07
2022-11-23T17:14:49.210Z,28.93
2022-11-23T17:17:20.085Z,41.40
2022-11-23T17:19:49.712Z,33.53
2022-11-23T17:22:18.434Z,40.70
2022-11-23T17:24:46.360Z,39.23
2022-11-23T17:27:15.101Z,36.47
2022-11-23T17:29:43.591Z,39.60
2022-11-23T17:32:13.891Z,35.67
2022-11-23T17:34:41.991Z,43.70
2022-11-23T17:37:11.980Z,46.30
2022-11-23T17:39:39.905Z,37.90
2022-11-23T17:42:07.912Z,39.17
2022-11-23T17:44:35.819Z,33.10
2022-11-23T17:47:03.822Z,36.43
2022-11-23T17:49:33.505Z,57.00
2022-11-23T17:52:01.609Z,32.30
2022-11-23T17:54:29.629Z,38.67
2022-11-23T17:56:57.904Z,33.73
2022-11-23T17:59:25.932Z,32.00
2022-11-23T18:01:53.981Z,37.73
2022-11-23T18:04:21.907Z,33.60
2022-11-23T18:06:51.250Z,35.77
2022-11-23T18:09:19.248Z,33.17
2022-11-23T18:11:47.236Z,30.27
2022-11-23T18:14:15.255Z,37.93
2022-11-23T18:16:43.445Z,35.90
2022-11-23T18:19:11.550Z,38.23
2022-11-23T18:21:39.539Z,33.63
2022-11-23T18:24:09.302Z,29.17
2022-11-23T18:26:37.266Z,32.43
2022-11-23T18:29:05.240Z,33.40
2022-11-23T18:31:33.284Z,37.33
2022-11-23T18:34:02.796Z,42.63
2022-11-23T18:36:30.820Z,30.77
2022-11-23T18:38:58.892Z,32.07
2022-11-23T18:41:28.557Z,35.13
2022-11-23T18:43:56.541Z,30.53
2022-11-23T18:46:24.746Z,32.87
2022-11-23T18:48:53.515Z,35.90
2022-11-23T18:51:21.435Z,36.60
2022-11-23T18:53:51.051Z,32.90
2022-11-23T18:56:19.389Z,28.50
2022-11-23T18:58:48.733Z,30.77
2022-11-23T19:01:18.085Z,34.53
2022-11-23T19:03:46.789Z,30.67
2022-11-23T19:06:15.370Z,32.90
2022-11-23T19:08:44.303Z,33.63
2022-11-23T19:11:16.330Z,48.23
2022-11-23T19:13:44.914Z,40.33
2022-11-23T19:16:16.306Z,35.17
2022-11-23T19:18:45.680Z,44.30
2022-11-23T19:21:14.855Z,41.40
2022-11-23T19:23:42.832Z,30.90
2022-11-23T19:26:10.786Z,38.57
2022-11-23T19:28:40.033Z,38.70
2022-11-23T19:31:11.944Z,35.77
2022-11-23T19:33:41.302Z,34.30
2022-11-23T19:36:10.050Z,32.70
2022-11-23T19:38:38.178Z,36.43
2022-11-23T19:41:06.351Z,35.30
2022-11-23T19:43:34.297Z,41.50
2022-11-23T19:46:03.449Z,35.57
2022-11-23T19:48:31.818Z,35.40
2022-11-23T19:51:02.407Z,35.97
2022-11-23T19:53:31.255Z,32.57
2022-11-23T19:56:03.412Z,31.70
2022-11-23T19:58:32.421Z,33.33
2022-11-23T20:01:01.247Z,26.53
2022-11-23T20:03:29.252Z,22.63
2022-11-23T20:05:58.033Z,39.23
2022-11-23T20:08:28.148Z,34.90
2022-11-23T20:10:56.187Z,28.73
2022-11-23T20:13:24.340Z,31.37
2022-11-23T20:15:52.379Z,37.87
2022-11-23T20:18:22.613Z,33.50
2022-11-23T20:20:53.577Z,30.10
2022-11-23T20:23:21.577Z,59.37
2022-11-23T20:25:51.045Z,37.90
2022-11-23T20:28:19.068Z,40.00
2022-11-23T20:30:49.281Z,35.90
2022-11-23T20:33:19.490Z,34.40
2022-11-23T20:35:47.859Z,29.30
2022-11-23T20:38:17.358Z,43.90
2022-11-23T20:40:45.327Z,39.80
2022-11-23T20:43:14.663Z,42.90
2022-11-23T20:45:42.705Z,44.03
2022-11-23T20:48:10.743Z,46.23
2022-11-23T20:50:38.670Z,44.50
2022-11-23T20:53:06.577Z,42.47
2022-11-23T20:55:34.578Z,39.53
2022-11-23T20:58:02.495Z,39.47
2022-11-23T21:00:31.981Z,35.63
2022-11-23T21:02:59.990Z,43.80
2022-11-23T21:05:27.966Z,37.03
2022-11-23T21:07:55.993Z,35.70
2022-11-23T21:10:41.373Z,34.87
2022-11-23T21:13:49.328Z,40.47
2022-11-23T21:16:19.416Z,38.97
2022-11-23T21:18:47.475Z,31.67
2022-11-23T21:21:15.438Z,39.00
2022-11-23T21:23:45.221Z,37.43
2022-11-23T21:26:16.148Z,39.00
2022-11-23T21:28:44.354Z,40.57
2022-11-23T21:31:15.286Z,41.77
2022-11-23T21:33:44.963Z,44.83
2022-11-23T21:36:13.185Z,39.50
2022-11-23T21:38:41.254Z,46.63
2022-11-23T21:41:10.939Z,42.53
2022-11-23T21:43:39.106Z,48.67
2022-11-23T21:46:08.223Z,41.30
2022-11-23T21:48:36.550Z,37.43
2022-11-23T21:51:06.756Z,38.60
2022-11-23T21:53:34.951Z,36.70
2022-11-23T21:56:03.707Z,32.03
2022-11-23T21:58:31.727Z,52.70
2022-11-23T22:01:05.221Z,42.10
2022-11-23T22:03:34.292Z,36.77
2022-11-23T22:06:02.236Z,43.83
2022-11-23T22:08:31.606Z,52.30
2022-11-23T22:10:59.648Z,50.47
2022-11-23T22:13:30.475Z,42.83
2022-11-23T22:16:02.021Z,61.83
2022-11-23T22:18:30.020Z,42.40
2022-11-23T22:21:04.119Z,51.97
2022-11-23T22:23:33.469Z,57.13
2022-11-23T22:26:02.536Z,57.47
2022-11-23T22:28:32.811Z,55.73
2022-11-23T22:31:02.881Z,48.03
2022-11-23T22:33:30.840Z,59.97
2022-11-23T22:36:01.282Z,54.07
2022-11-23T22:38:29.823Z,55.43
2022-11-23T22:40:59.144Z,49.87
2022-11-23T22:43:27.133Z,60.93
2022-11-23T22:45:55.141Z,56.30
2022-11-23T22:48:23.091Z,45.20
2022-11-23T22:50:57.570Z,54.30
2022-11-23T22:53:25.590Z,34.73
2022-11-23T22:55:53.607Z,33.20
2022-11-23T22:58:22.962Z,29.53
2022-11-23T23:00:50.929Z,24.00
2022-11-23T23:03:19.143Z,27.73
2022-11-23T23:05:54.915Z,49.63
2022-11-23T23:08:23.278Z,42.73
2022-11-23T23:10:51.213Z,45.40
2022-11-23T23:13:19.172Z,57.03
2022-11-23T23:15:48.530Z,45.77
2022-11-23T23:18:16.663Z,50.30
2022-11-23T23:20:45.186Z,43.73
2022-11-23T23:23:13.905Z,42.60
2022-11-23T23:25:41.890Z,38.77
2022-11-23T23:28:09.947Z,60.27
2022-11-23T23:30:37.967Z,63.00
2022-11-23T23:33:07.302Z,48.93
2022-11-23T23:35:36.660Z,43.47
2022-11-23T23:38:04.715Z,46.83
2022-11-23T23:40:32.625Z,62.17
2022-11-23T23:43:00.601Z,45.43
2022-11-23T23:45:28.641Z,48.60
2022-11-23T23:47:58.947Z,47.90
2022-11-23T23:50:28.246Z,49.33
2022-11-23T23:52:56.256Z,45.97
2022-11-23T23:55:24.292Z,43.23
2022-11-23T23:57:52.815Z,49.87
